createdAt,value
2022-11-05T00:01:22.858Z,3.07
2022-11-05T00:05:25.385Z,3.67
2022-11-05T00:09:27.844Z,3.17
2022-11-05T00:13:46.483Z,2.50
2022-11-05T00:17:29.168Z,4.23
2022-11-05T00:21:27.090Z,3.00
2022-11-05T00:25:16.788Z,3.87
2022-11-05T00:28:59.442Z,2.90
2022-11-05T00:32:43.599Z,3.07
2022-11-05T00:36:27.659Z,3.43
2022-11-05T00:40:14.966Z,2.73
2022-11-05T00:44:15.334Z,3.43
2022-11-05T00:48:16.235Z,3.23
2022-11-05T00:52:14.192Z,3.40
2022-11-05T00:55:57.739Z,3.07
2022-11-05T00:59:40.488Z,8.30
2022-11-05T01:03:25.093Z,2.67
2022-11-05T01:07:09.146Z,5.90
2022-11-05T01:10:53.763Z,3.97
2022-11-05T01:14:36.488Z,3.10
2022-11-05T01:18:19.688Z,3.83
2022-11-05T01:22:02.357Z,3.33
2022-11-05T01:25:46.587Z,3.50
2022-11-05T01:29:29.395Z,6.43
2022-11-05T01:33:12.276Z,3.90
2022-11-05T01:36:57.427Z,4.30
2022-11-05T01:40:43.909Z,5.80
2022-11-05T01:44:53.479Z,4.63
2022-11-05T01:48:37.245Z,5.17
2022-11-05T01:52:20.018Z,5.97
2022-11-05T01:56:06.534Z,3.60
2022-11-05T01:59:52.457Z,3.97
2022-11-05T02:03:35.890Z,3.67
2022-11-05T02:07:19.031Z,4.10
2022-11-05T02:11:01.759Z,3.50
2022-11-05T02:14:44.446Z,4.47
2022-11-05T02:18:36.467Z,3.17
2022-11-05T02:22:49.949Z,3.00
2022-11-05T02:26:51.336Z,3.80
2022-11-05T02:30:42.039Z,4.40
2022-11-05T02:34:28.645Z,3.57
2022-11-05T02:38:16.612Z,3.57
2022-11-05T02:42:06.961Z,3.37
2022-11-05T02:45:58.352Z,3.70
2022-11-05T02:49:49.120Z,4.37
2022-11-05T02:53:35.773Z,3.60
2022-11-05T02:57:20.430Z,2.17
2022-11-05T03:01:07.046Z,3.57
2022-11-05T03:04:49.788Z,4.73
2022-11-05T03:08:41.753Z,3.13
2022-11-05T03:12:32.530Z,2.30
2022-11-05T03:16:19.488Z,3.43
2022-11-05T03:20:09.578Z,4.43
2022-11-05T03:23:57.840Z,3.93
2022-11-05T03:27:42.600Z,4.13
2022-11-05T03:31:28.299Z,4.80
2022-11-05T03:35:15.599Z,2.60
2022-11-05T03:39:00.426Z,5.53
2022-11-05T03:42:46.399Z,2.97
2022-11-05T03:46:33.255Z,3.83
2022-11-05T03:50:20.795Z,3.10
2022-11-05T03:54:04.707Z,3.40
2022-11-05T03:57:50.476Z,5.10
2022-11-05T04:01:37.925Z,4.10
2022-11-05T04:05:20.972Z,3.47
2022-11-05T04:09:23.277Z,4.63
2022-11-05T04:13:22.823Z,3.67
2022-11-05T04:17:10.492Z,3.73
2022-11-05T04:21:10.853Z,4.50
2022-11-05T04:24:53.516Z,3.13
2022-11-05T04:28:50.065Z,6.63
2022-11-05T04:32:34.172Z,3.90
2022-11-05T04:36:16.985Z,4.27
2022-11-05T04:39:59.660Z,3.13
2022-11-05T04:43:42.317Z,5.40
2022-11-05T04:47:24.935Z,4.13
2022-11-05T04:51:09.094Z,5.93
2022-11-05T04:54:51.710Z,4.50
2022-11-05T04:58:34.375Z,7.80
2022-11-05T05:02:17.103Z,4.77
2022-11-05T05:06:03.782Z,5.77
2022-11-05T05:09:48.243Z,5.53
2022-11-05T05:13:33.984Z,4.97
2022-11-05T05:17:17.340Z,4.60
2022-11-05T05:21:17.508Z,4.83
2022-11-05T05:25:01.607Z,5.97
2022-11-05T05:28:44.462Z,6.13
2022-11-05T05:32:27.792Z,6.50
2022-11-05T05:36:11.593Z,5.57
2022-11-05T05:39:54.660Z,6.90
2022-11-05T05:43:41.486Z,6.67
2022-11-05T05:47:24.162Z,9.20
2022-11-05T05:51:08.388Z,7.27
2022-11-05T05:54:51.078Z,6.23
2022-11-05T05:58:35.187Z,6.17
2022-11-05T06:02:19.396Z,6.80
2022-11-05T06:06:03.142Z,7.13
2022-11-05T06:09:45.854Z,7.27
2022-11-05T06:13:28.662Z,6.90
2022-11-05T06:17:11.354Z,7.90
2022-11-05T06:20:55.909Z,8.63
2022-11-05T06:24:38.532Z,6.97
2022-11-05T06:28:21.181Z,5.87
2022-11-05T06:32:03.829Z,8.53
2022-11-05T06:35:46.541Z,7.83
2022-11-05T06:39:30.536Z,7.43
2022-11-05T06:43:13.700Z,7.00
2022-11-05T06:46:56.655Z,6.43
2022-11-05T06:50:39.330Z,7.87
2022-11-05T06:54:22.113Z,8.87
2022-11-05T06:58:09.270Z,6.90
2022-11-05T07:01:51.987Z,9.17
2022-11-05T07:05:36.515Z,8.73
2022-11-05T07:09:19.144Z,7.30
2022-11-05T07:13:06.749Z,8.63
2022-11-05T07:16:52.270Z,8.70
2022-11-05T07:20:35.425Z,7.30
2022-11-05T07:24:18.103Z,8.27
2022-11-05T07:28:01.303Z,9.30
2022-11-05T07:31:45.972Z,7.03
2022-11-05T07:35:30.056Z,7.33
2022-11-05T07:39:12.841Z,9.10
2022-11-05T07:42:59.686Z,7.13
2022-11-05T07:46:42.665Z,11.57
2022-11-05T07:50:26.893Z,8.00
2022-11-05T07:54:11.317Z,6.37
2022-11-05T07:57:54.125Z,7.33
2022-11-05T08:01:36.990Z,8.90
2022-11-05T08:05:19.892Z,6.93
2022-11-05T08:09:03.090Z,8.07
2022-11-05T08:12:47.127Z,8.27
2022-11-05T08:16:29.789Z,8.73
2022-11-05T08:20:12.908Z,8.50
2022-11-05T08:23:58.814Z,9.37
2022-11-05T08:27:41.483Z,11.30
2022-11-05T08:31:25.584Z,8.47
2022-11-05T08:35:08.810Z,9.53
2022-11-05T08:38:51.465Z,10.80
2022-11-05T08:42:34.131Z,9.37
2022-11-05T08:46:16.844Z,8.33
2022-11-05T08:50:00.905Z,8.57
2022-11-05T08:53:43.522Z,9.97
2022-11-05T08:57:26.160Z,10.80
2022-11-05T09:01:08.927Z,9.10
2022-11-05T09:04:51.690Z,10.83
2022-11-05T09:08:35.690Z,10.53
2022-11-05T09:12:18.761Z,8.90
2022-11-05T09:16:01.607Z,8.43
2022-11-05T09:19:44.288Z,5.23
2022-11-05T09:23:29.613Z,4.57
2022-11-05T09:27:14.649Z,4.63
2022-11-05T09:30:57.327Z,3.43
2022-11-05T09:34:39.919Z,2.07
2022-11-05T09:38:22.602Z,1.87
2022-11-05T09:42:08.675Z,1.70
2022-11-05T09:45:55.402Z,2.67
2022-11-05T09:49:40.455Z,2.00
2022-11-05T09:53:24.414Z,3.33
2022-11-05T09:57:09.576Z,2.83
2022-11-05T10:00:56.667Z,6.73
2022-11-05T10:04:41.025Z,3.97
2022-11-05T10:08:25.906Z,3.30
2022-11-05T10:12:13.887Z,2.60
2022-11-05T10:16:02.188Z,3.43
2022-11-05T10:19:47.668Z,3.27
2022-11-05T10:23:30.571Z,4.10
2022-11-05T10:27:17.272Z,3.57
2022-11-05T10:31:03.071Z,3.80
2022-11-05T10:34:48.630Z,4.53
2022-11-05T10:38:31.548Z,3.57
2022-11-05T10:42:29.971Z,3.23
2022-11-05T10:46:28.803Z,3.27
2022-11-05T10:50:12.882Z,3.47
2022-11-05T10:54:01.961Z,3.40
2022-11-05T10:57:45.129Z,3.83
2022-11-05T11:01:30.049Z,4.17
2022-11-05T11:05:20.549Z,4.10
2022-11-05T11:09:07.235Z,3.60
2022-11-05T11:12:51.396Z,3.73
2022-11-05T11:16:38.810Z,4.37
2022-11-05T11:20:28.849Z,4.30
2022-11-05T11:24:23.176Z,2.83
2022-11-05T11:28:07.115Z,5.17
2022-11-05T11:31:55.253Z,3.50
2022-11-05T11:35:39.505Z,2.57
2022-11-05T11:39:25.196Z,3.70
2022-11-05T11:43:18.055Z,2.53
2022-11-05T11:47:47.947Z,2.90
2022-11-05T11:51:34.180Z,3.63
2022-11-05T11:55:22.619Z,3.37
2022-11-05T11:59:15.854Z,3.40
2022-11-05T12:03:14.151Z,3.50
2022-11-05T12:07:06.837Z,3.23
2022-11-05T12:10:56.279Z,2.83
2022-11-05T12:14:46.966Z,3.33
2022-11-05T12:18:38.057Z,3.20
2022-11-05T12:22:27.349Z,3.67
2022-11-05T12:26:19.017Z,3.97
2022-11-05T12:30:05.320Z,3.50
2022-11-05T12:33:58.211Z,3.43
2022-11-05T12:37:46.670Z,3.27
2022-11-05T12:41:33.056Z,3.07
2022-11-05T12:45:23.935Z,3.20
2022-11-05T12:49:21.225Z,2.90
2022-11-05T12:53:31.422Z,2.40
2022-11-05T12:57:15.100Z,3.23
2022-11-05T13:01:02.224Z,2.93
2022-11-05T13:04:53.479Z,2.57
2022-11-05T13:08:40.876Z,2.93
2022-11-05T13:12:25.987Z,2.60
2022-11-05T13:16:14.282Z,2.33
2022-11-05T13:20:04.255Z,2.90
2022-11-05T13:23:50.847Z,2.00
2022-11-05T13:27:49.317Z,2.20
2022-11-05T13:31:34.808Z,3.03
2022-11-05T13:35:23.697Z,3.23
2022-11-05T13:39:13.013Z,1.90
2022-11-05T13:43:11.047Z,3.43
2022-11-05T13:47:26.492Z,2.03
2022-11-05T13:51:24.143Z,2.20
2022-11-05T13:55:27.465Z,1.77
2022-11-05T13:59:48.804Z,2.00
2022-11-05T14:03:31.635Z,1.30
2022-11-05T14:07:18.586Z,1.97
2022-11-05T14:11:04.429Z,2.20
2022-11-05T14:14:53.270Z,2.50
2022-11-05T14:18:42.650Z,1.50
2022-11-05T14:22:44.309Z,1.97
2022-11-05T14:26:27.821Z,2.63
2022-11-05T14:30:41.478Z,2.20
2022-11-05T14:35:01.688Z,3.73
2022-11-05T14:38:49.427Z,2.83
2022-11-05T14:42:32.501Z,2.23
2022-11-05T14:46:15.314Z,3.20
2022-11-05T14:50:01.813Z,4.57
2022-11-05T14:53:44.572Z,2.70
2022-11-05T14:58:03.128Z,3.43
2022-11-05T15:01:55.884Z,4.23
2022-11-05T15:05:41.447Z,3.47
2022-11-05T15:09:31.158Z,3.50
2022-11-05T15:13:28.019Z,6.60
2022-11-05T15:17:17.300Z,4.30
2022-11-05T15:21:02.364Z,3.23
2022-11-05T15:24:45.122Z,4.23
2022-11-05T15:28:36.589Z,3.93
2022-11-05T15:32:20.439Z,5.87
2022-11-05T15:36:10.838Z,4.97
2022-11-05T15:39:54.655Z,5.23
2022-11-05T15:43:47.849Z,6.00
2022-11-05T15:47:32.033Z,6.53
2022-11-05T15:51:14.841Z,6.97
2022-11-05T15:55:19.938Z,6.17
2022-11-05T15:59:06.147Z,4.77
2022-11-05T16:02:54.324Z,6.83
2022-11-05T16:06:42.309Z,7.67
2022-11-05T16:10:29.398Z,6.83
2022-11-05T16:14:18.176Z,9.67
2022-11-05T16:18:01.130Z,7.13
2022-11-05T16:21:54.180Z,15.87
2022-11-05T16:25:39.044Z,7.43
2022-11-05T16:29:28.169Z,9.43
2022-11-05T16:33:14.805Z,10.10
2022-11-05T16:36:58.249Z,11.17
2022-11-05T16:40:40.997Z,9.27
2022-11-05T16:44:25.313Z,7.53
2022-11-05T16:48:10.430Z,7.57
2022-11-05T16:51:53.559Z,7.93
2022-11-05T16:55:37.829Z,8.23
2022-11-05T16:59:20.533Z,6.33
2022-11-05T17:03:04.948Z,6.43
2022-11-05T17:06:49.933Z,7.53
2022-11-05T17:10:32.622Z,7.10
2022-11-05T17:14:15.350Z,8.20
2022-11-05T17:17:59.407Z,8.50
2022-11-05T17:21:43.455Z,8.63
2022-11-05T17:25:26.718Z,9.13
2022-11-05T17:29:09.480Z,9.87
2022-11-05T17:32:52.440Z,10.03
2022-11-05T17:36:35.182Z,8.60
2022-11-05T17:40:21.430Z,8.57
2022-11-05T17:44:04.167Z,10.53
2022-11-05T17:47:47.182Z,10.63
2022-11-05T17:51:29.896Z,8.97
2022-11-05T17:55:17.469Z,9.27
2022-11-05T17:59:02.244Z,10.23
2022-11-05T18:02:46.141Z,11.67
2022-11-05T18:06:28.985Z,11.80
2022-11-05T18:10:12.241Z,12.60
2022-11-05T18:13:55.040Z,9.03
2022-11-05T18:17:39.216Z,17.97
2022-11-05T18:21:52.396Z,9.20
2022-11-05T18:25:35.034Z,9.97
2022-11-05T18:29:19.931Z,9.70
2022-11-05T18:33:03.951Z,9.30
2022-11-05T18:36:52.061Z,12.83
2022-11-05T18:40:37.814Z,11.83
2022-11-05T18:44:22.783Z,14.20
2022-11-05T18:48:07.512Z,11.90
2022-11-05T18:51:52.936Z,13.40
2022-11-05T18:55:35.657Z,13.00
2022-11-05T18:59:36.924Z,12.30
2022-11-05T19:03:22.527Z,9.70
2022-11-05T19:07:06.212Z,12.90
2022-11-05T19:10:51.391Z,14.00
2022-11-05T19:14:34.177Z,8.80
2022-11-05T19:18:16.860Z,10.07
2022-11-05T19:22:13.063Z,11.97
2022-11-05T19:25:55.676Z,13.10
2022-11-05T19:29:38.422Z,10.20
2022-11-05T19:33:21.134Z,10.93
2022-11-05T19:37:22.741Z,9.83
2022-11-05T19:41:07.933Z,11.30
2022-11-05T19:44:50.597Z,10.70
2022-11-05T19:48:33.856Z,13.80
2022-11-05T19:52:39.027Z,10.77
2022-11-05T19:56:23.553Z,12.70
2022-11-05T20:00:07.316Z,14.43
2022-11-05T20:03:50.457Z,15.57
2022-11-05T20:07:36.242Z,13.03
2022-11-05T20:11:20.439Z,12.17
2022-11-05T20:15:03.658Z,11.93
2022-11-05T20:18:46.401Z,14.17
2022-11-05T20:22:43.271Z,13.90
2022-11-05T20:26:27.412Z,14.67
2022-11-05T20:30:11.459Z,13.40
2022-11-05T20:33:54.480Z,14.30
2022-11-05T20:37:40.973Z,13.27
2022-11-05T20:41:24.225Z,15.73
2022-11-05T20:45:09.342Z,14.07
2022-11-05T20:48:52.070Z,13.80
2022-11-05T20:52:46.672Z,12.70
2022-11-05T20:56:31.382Z,14.00
2022-11-05T21:00:16.929Z,15.33
2022-11-05T21:03:59.961Z,13.53
2022-11-05T21:07:47.679Z,14.57
2022-11-05T21:11:50.417Z,15.20
2022-11-05T21:15:34.439Z,15.80
2022-11-05T21:19:17.094Z,14.70
2022-11-05T21:23:10.501Z,15.07
2022-11-05T21:26:53.533Z,14.77
2022-11-05T21:30:38.809Z,15.30
2022-11-05T21:34:21.572Z,15.90
2022-11-05T21:38:15.133Z,14.57
2022-11-05T21:41:58.232Z,14.70
2022-11-05T21:45:44.011Z,15.17
2022-11-05T21:49:27.021Z,15.27
2022-11-05T21:53:43.277Z,17.63
2022-11-05T21:57:43.664Z,16.77
2022-11-05T22:01:27.831Z,16.70
2022-11-05T22:05:10.654Z,16.90
2022-11-05T22:08:53.334Z,17.67
2022-11-05T22:12:36.379Z,15.97
2022-11-05T22:16:19.127Z,17.07
2022-11-05T22:20:03.145Z,16.43
2022-11-05T22:23:45.867Z,18.00
2022-11-05T22:27:28.584Z,15.87
2022-11-05T22:31:13.480Z,17.33
2022-11-05T22:34:56.109Z,17.83
2022-11-05T22:38:52.438Z,16.23
2022-11-05T22:42:35.179Z,15.17
2022-11-05T22:46:19.623Z,17.47
2022-11-05T22:50:02.891Z,18.07
2022-11-05T22:53:48.867Z,18.10
2022-11-05T22:57:31.621Z,18.43
2022-11-05T23:01:15.641Z,15.87
2022-11-05T23:04:58.466Z,15.57
2022-11-05T23:09:08.878Z,18.40
2022-11-05T23:12:53.078Z,16.53
2022-11-05T23:16:53.470Z,14.97
2022-11-05T23:20:53.780Z,16.83
2022-11-05T23:24:37.799Z,17.53
2022-11-05T23:28:23.116Z,17.47
2022-11-05T23:32:23.280Z,15.60
2022-11-05T23:36:23.650Z,15.70
2022-11-05T23:40:10.709Z,15.27
2022-11-05T23:44:10.944Z,16.37
2022-11-05T23:48:11.559Z,14.10
2022-11-05T23:51:54.663Z,14.67
2022-11-05T23:55:39.464Z,14.53
2022-11-05T23:59:22.341Z,14.53
